Time;durP1;ratioP1;P1;durP2;ratioP2;P2;SDS_P1;SDS_P2;PMS_P1;PMS_P2;Temp;Humidity;BMP_temperature;BMP_pressure;BME280_temperature;BME280_humidity;BME280_pressure;Samples;Min_cycle;Max_cycle;Signal;HPM_P1;HPM_P2
2024/01/13 00:02:11;;;;;;;41.10;25.50;;;1.90;99.90;;;;;;5027376;28;20415;-65
2024/01/13 00:04:39;;;;;;;44.03;25.55;;;1.90;99.90;;;;;;5025680;28;20438;-66
2024/01/13 00:07:06;;;;;;;41.03;25.85;;;2.00;99.90;;;;;;5026792;28;20445;-65
2024/01/13 00:09:33;;;;;;;39.80;25.27;;;1.90;99.90;;;;;;5024546;28;20486;-65
2024/01/13 00:11:59;;;;;;;35.83;24.55;;;1.90;99.90;;;;;;5025618;28;20434;-65
2024/01/13 00:14:26;;;;;;;41.08;25.20;;;1.90;99.90;;;;;;5025616;28;20793;-65
2024/01/13 00:16:53;;;;;;;39.20;25.75;;;2.00;99.90;;;;;;5027301;28;20429;-65
2024/01/13 00:19:20;;;;;;;37.95;24.70;;;2.00;99.90;;;;;;5025558;28;20426;-65
2024/01/13 00:21:48;;;;;;;43.38;24.83;;;1.90;99.90;;;;;;5032087;28;20405;-65
2024/01/13 00:24:14;;;;;;;37.78;24.70;;;2.00;99.90;;;;;;5025859;28;20423;-65
2024/01/13 00:26:41;;;;;;;36.88;25.73;;;2.00;99.90;;;;;;5025610;28;20513;-65
2024/01/13 00:29:08;;;;;;;34.50;23.73;;;2.00;99.90;;;;;;5023139;28;20441;-65
2024/01/13 00:31:35;;;;;;;38.25;25.15;;;2.00;99.90;;;;;;5030080;28;20452;-66
2024/01/13 00:34:02;;;;;;;35.78;23.80;;;2.00;99.90;;;;;;5024987;28;20430;-65
2024/01/13 00:36:29;;;;;;;38.75;25.67;;;2.00;99.90;;;;;;5018594;28;20419;-65
2024/01/13 00:38:57;;;;;;;38.03;24.40;;;2.00;99.90;;;;;;5025468;28;20419;-65
2024/01/13 00:41:22;;;;;;;35.25;23.55;;;2.00;99.90;;;;;;5024646;28;20434;-66
2024/01/13 00:43:49;;;;;;;36.85;24.33;;;2.00;99.90;;;;;;5028794;28;20747;-65
2024/01/13 00:46:16;;;;;;;33.22;23.38;;;2.00;99.90;;;;;;5039313;28;20502;-65
2024/01/13 00:48:43;;;;;;;37.13;24.05;;;2.00;99.90;;;;;;5039525;28;20445;-65
2024/01/13 00:51:10;;;;;;;36.30;23.65;;;2.00;99.90;;;;;;5037070;28;20415;-65
2024/01/13 00:53:36;;;;;;;38.65;24.90;;;2.00;99.90;;;;;;5026142;28;20427;-65
2024/01/13 00:56:06;;;;;;;35.70;24.58;;;2.00;99.90;;;;;;5023736;28;20437;-66
2024/01/13 00:58:33;;;;;;;37.95;25.38;;;2.00;99.90;;;;;;5024835;28;20441;-65
2024/01/13 01:01:00;;;;;;;37.05;24.50;;;2.00;99.90;;;;;;5029380;28;20443;-65
2024/01/13 01:03:27;;;;;;;36.95;25.73;;;2.00;99.90;;;;;;5026107;28;20433;-65
2024/01/13 01:05:54;;;;;;;33.83;23.23;;;2.00;99.90;;;;;;5024897;28;20445;-65
2024/01/13 01:08:21;;;;;;;40.03;26.00;;;2.00;99.90;;;;;;5023723;28;20431;-65
2024/01/13 01:10:48;;;;;;;35.90;24.00;;;2.00;99.90;;;;;;5028720;28;20557;-65
2024/01/13 01:13:16;;;;;;;36.37;23.90;;;2.00;99.90;;;;;;5025874;28;20410;-65
2024/01/13 01:15:43;;;;;;;37.45;24.25;;;2.00;99.90;;;;;;5025199;28;20421;-65
2024/01/13 01:18:09;;;;;;;39.63;24.63;;;2.00;99.90;;;;;;5026940;28;20415;-65
2024/01/13 01:20:36;;;;;;;35.65;23.73;;;2.00;99.90;;;;;;5028537;28;20446;-65
2024/01/13 01:23:03;;;;;;;35.75;24.48;;;2.00;99.90;;;;;;5045303;28;20445;-65
2024/01/13 01:25:30;;;;;;;35.25;24.92;;;2.00;99.90;;;;;;5021759;28;20431;-65
2024/01/13 01:27:56;;;;;;;35.70;24.67;;;2.00;99.90;;;;;;5025142;28;20442;-65
2024/01/13 01:30:24;;;;;;;38.05;25.58;;;2.00;99.90;;;;;;5024871;28;20448;-65
2024/01/13 01:32:51;;;;;;;34.70;23.95;;;2.10;99.90;;;;;;5026805;28;20862;-65
2024/01/13 01:35:18;;;;;;;38.42;25.88;;;2.10;99.90;;;;;;5024857;28;20473;-70
2024/01/13 01:37:45;;;;;;;36.92;24.92;;;2.10;99.90;;;;;;5024596;28;20438;-65
2024/01/13 01:40:15;;;;;;;35.30;24.75;;;2.10;99.90;;;;;;5024537;28;20411;-65
2024/01/13 01:42:42;;;;;;;35.67;24.70;;;2.10;99.90;;;;;;5024041;28;20770;-65
2024/01/13 01:45:09;;;;;;;34.00;24.15;;;2.10;99.90;;;;;;5026000;28;20502;-65
2024/01/13 01:47:40;;;;;;;32.80;22.33;;;2.10;99.90;;;;;;5028793;28;20415;-66
2024/01/13 01:50:09;;;;;;;34.83;23.15;;;2.10;99.90;;;;;;5026320;28;20419;-65
2024/01/13 01:52:36;;;;;;;31.48;21.67;;;2.10;99.90;;;;;;5025658;28;20508;-66
2024/01/13 01:55:04;;;;;;;35.20;23.13;;;2.10;99.90;;;;;;5025697;28;20504;-65
2024/01/13 01:57:31;;;;;;;35.20;22.98;;;2.10;99.90;;;;;;5019078;28;20972;-65
2024/01/13 01:59:59;;;;;;;33.33;24.10;;;2.10;99.90;;;;;;5025337;28;20506;-63
2024/01/13 02:02:27;;;;;;;32.42;23.08;;;2.10;99.90;;;;;;5035282;28;20411;-64
2024/01/13 02:04:56;;;;;;;30.55;22.45;;;2.10;99.90;;;;;;5037469;28;20403;-63
2024/01/13 02:07:22;;;;;;;34.85;23.83;;;2.10;99.90;;;;;;5043280;28;20425;-63
2024/01/13 02:09:50;;;;;;;28.88;21.50;;;2.10;99.90;;;;;;5040822;28;20431;-65
2024/01/13 02:12:17;;;;;;;33.05;22.88;;;2.20;99.90;;;;;;5042045;28;20431;-64
2024/01/13 02:14:44;;;;;;;29.17;22.20;;;2.20;99.90;;;;;;5043467;28;20467;-64
2024/01/13 02:17:10;;;;;;;36.20;22.30;;;2.10;99.90;;;;;;5042827;28;20411;-64
2024/01/13 02:19:38;;;;;;;31.67;22.30;;;2.20;99.90;;;;;;5042336;28;20550;-64
2024/01/13 02:22:06;;;;;;;31.43;21.40;;;2.20;99.90;;;;;;5042785;28;20505;-64
2024/01/13 02:24:33;;;;;;;30.73;21.42;;;2.20;99.90;;;;;;5042927;28;21093;-64
2024/01/13 02:26:59;;;;;;;29.05;22.10;;;2.20;99.90;;;;;;5043135;28;20450;-66
2024/01/13 02:29:26;;;;;;;28.05;19.95;;;2.20;99.90;;;;;;5041965;28;20939;-64
2024/01/13 02:31:53;;;;;;;28.35;20.38;;;2.20;99.90;;;;;;5038422;28;20414;-64
2024/01/13 02:34:19;;;;;;;27.50;21.17;;;2.20;99.90;;;;;;5041418;28;20427;-64
2024/01/13 02:36:46;;;;;;;27.40;20.27;;;2.20;99.90;;;;;;5042445;28;20423;-64
2024/01/13 02:39:14;;;;;;;27.88;21.00;;;2.20;99.90;;;;;;5039630;28;20415;-64
2024/01/13 02:41:42;;;;;;;28.92;20.67;;;2.20;99.90;;;;;;5038598;28;20955;-64
2024/01/13 02:44:09;;;;;;;26.35;19.35;;;2.20;99.90;;;;;;5035833;28;20414;-64
2024/01/13 02:46:36;;;;;;;23.05;18.27;;;2.20;99.90;;;;;;5043398;28;20479;-64
2024/01/13 02:49:04;;;;;;;27.75;18.33;;;2.30;99.90;;;;;;5034043;28;20430;-64
2024/01/13 02:51:31;;;;;;;25.50;20.03;;;2.20;99.90;;;;;;5027255;28;20411;-64
2024/01/13 02:53:57;;;;;;;25.67;19.08;;;2.30;99.90;;;;;;5028689;28;21155;-64
2024/01/13 02:56:25;;;;;;;25.65;19.20;;;2.30;99.90;;;;;;5028172;28;20431;-64
2024/01/13 02:58:52;;;;;;;23.92;17.13;;;2.30;99.90;;;;;;5027627;28;20429;-64
2024/01/13 03:01:19;;;;;;;26.25;18.70;;;2.30;99.90;;;;;;5027857;28;20510;-64
2024/01/13 03:03:49;;;;;;;24.05;18.00;;;2.40;99.90;;;;;;5026608;28;20411;-64
2024/01/13 03:06:15;;;;;;;24.33;18.48;;;2.30;99.90;;;;;;5033573;28;20434;-64
2024/01/13 03:08:43;;;;;;;24.67;18.10;;;2.40;99.90;;;;;;5059007;23;20543;-68
2024/01/13 03:11:11;;;;;;;21.45;17.15;;;2.40;99.90;;;;;;5047435;28;20425;-68
2024/01/13 03:13:39;;;;;;;22.38;16.67;;;2.40;99.90;;;;;;5050102;28;20413;-67
2024/01/13 03:16:06;;;;;;;21.98;17.30;;;2.40;99.90;;;;;;5050430;28;20428;-67
2024/01/13 03:18:33;;;;;;;22.70;17.73;;;2.40;99.90;;;;;;5052331;28;20435;-67
2024/01/13 03:21:02;;;;;;;23.40;17.67;;;2.40;99.90;;;;;;5069436;28;20430;-67
2024/01/13 03:23:29;;;;;;;25.35;17.45;;;2.40;99.90;;;;;;5069689;28;20480;-66
2024/01/13 03:25:56;;;;;;;24.88;17.42;;;2.40;99.90;;;;;;5070068;28;20434;-67
2024/01/13 03:28:23;;;;;;;23.45;17.95;;;2.40;99.90;;;;;;5068826;28;20774;-67
2024/01/13 03:30:51;;;;;;;26.90;18.38;;;2.40;99.90;;;;;;5069676;28;20412;-67
2024/01/13 03:33:18;;;;;;;27.17;18.60;;;2.30;99.90;;;;;;5070101;28;20419;-67
2024/01/13 03:35:45;;;;;;;27.10;19.15;;;2.30;99.90;;;;;;5069122;28;20435;-67
2024/01/13 03:38:12;;;;;;;23.45;18.05;;;2.30;99.90;;;;;;5067809;28;20430;-67
2024/01/13 03:40:38;;;;;;;22.35;17.35;;;2.30;99.90;;;;;;5061801;28;20427;-66
2024/01/13 03:43:05;;;;;;;23.33;16.75;;;2.30;99.90;;;;;;5068994;28;20435;-67
2024/01/13 03:45:32;;;;;;;23.05;17.65;;;2.30;99.90;;;;;;5070024;28;20403;-67
2024/01/13 03:48:00;;;;;;;26.10;18.23;;;2.30;99.90;;;;;;5074630;28;20435;-67
2024/01/13 03:50:27;;;;;;;22.38;17.77;;;2.30;99.90;;;;;;5068906;28;20423;-67
2024/01/13 03:52:54;;;;;;;21.05;17.00;;;2.40;99.90;;;;;;5069554;28;20407;-67
2024/01/13 03:55:20;;;;;;;24.10;17.52;;;2.40;99.90;;;;;;5067366;28;20423;-66
2024/01/13 03:57:47;;;;;;;23.25;17.02;;;2.40;99.90;;;;;;5070053;28;20411;-68
2024/01/13 04:00:14;;;;;;;23.38;17.10;;;2.40;99.90;;;;;;5070508;28;20498;-66
2024/01/13 04:02:41;;;;;;;22.88;16.90;;;2.40;99.90;;;;;;5069103;28;20420;-67
2024/01/13 04:05:09;;;;;;;22.08;16.10;;;2.40;99.90;;;;;;5072885;28;20449;-67
2024/01/13 04:07:36;;;;;;;22.23;16.13;;;2.40;99.90;;;;;;5076681;28;20932;-66
2024/01/13 04:10:03;;;;;;;21.30;15.75;;;2.50;99.90;;;;;;5066772;28;20439;-69
2024/01/13 04:12:30;;;;;;;20.55;15.95;;;2.40;99.90;;;;;;5068004;28;20454;-69
2024/01/13 04:14:57;;;;;;;21.33;15.68;;;2.50;99.90;;;;;;5069567;28;20689;-69
2024/01/13 04:17:23;;;;;;;21.20;16.10;;;2.40;99.90;;;;;;5067494;28;20415;-68
2024/01/13 04:19:50;;;;;;;21.63;16.23;;;2.40;99.90;;;;;;5068054;28;20482;-67
2024/01/13 04:22:18;;;;;;;19.55;15.48;;;2.40;99.90;;;;;;5073422;28;20442;-69
2024/01/13 04:24:45;;;;;;;23.70;16.67;;;2.40;99.90;;;;;;5067731;28;20431;-67
2024/01/13 04:27:12;;;;;;;19.65;15.77;;;2.40;99.90;;;;;;5068552;28;20422;-67
2024/01/13 04:29:38;;;;;;;18.73;15.57;;;2.40;99.90;;;;;;5068515;28;20412;-67
2024/01/13 04:32:06;;;;;;;19.17;14.80;;;2.40;99.90;;;;;;5068885;28;20419;-67
2024/01/13 04:34:33;;;;;;;20.75;16.35;;;2.40;99.90;;;;;;5067895;28;20423;-67
2024/01/13 04:37:00;;;;;;;20.15;15.70;;;2.40;99.90;;;;;;5065461;28;20415;-69
2024/01/13 04:39:28;;;;;;;21.25;16.45;;;2.40;99.90;;;;;;5066122;28;20443;-67
2024/01/13 04:41:55;;;;;;;22.70;16.10;;;2.40;99.90;;;;;;5069108;28;20415;-67
2024/01/13 04:44:22;;;;;;;22.20;15.90;;;2.40;99.90;;;;;;5068579;28;20437;-70
2024/01/13 04:46:49;;;;;;;20.20;15.80;;;2.40;99.90;;;;;;5068947;28;20411;-69
2024/01/13 04:49:15;;;;;;;18.47;14.83;;;2.40;99.90;;;;;;5067117;28;20452;-67
2024/01/13 04:51:42;;;;;;;22.33;16.63;;;2.40;99.90;;;;;;5070923;28;20405;-68
2024/01/13 04:54:11;;;;;;;21.05;15.70;;;2.40;99.90;;;;;;5072150;28;20521;-68
2024/01/13 04:56:39;;;;;;;20.73;15.52;;;2.40;99.90;;;;;;5068215;28;20427;-67
2024/01/13 04:59:06;;;;;;;16.45;13.75;;;2.40;99.90;;;;;;5070029;28;20444;-67
2024/01/13 05:01:32;;;;;;;17.95;13.60;;;2.40;99.90;;;;;;5065871;28;20810;-68
2024/01/13 05:03:59;;;;;;;18.23;14.23;;;2.40;99.90;;;;;;5067849;28;20649;-69
2024/01/13 05:06:26;;;;;;;18.77;14.60;;;2.40;99.90;;;;;;5067234;28;20798;-65
2024/01/13 05:08:52;;;;;;;18.05;15.25;;;2.40;99.90;;;;;;5065741;28;21093;-68
2024/01/13 05:11:20;;;;;;;16.85;14.32;;;2.50;99.90;;;;;;5067984;28;20776;-66
2024/01/13 05:13:48;;;;;;;19.30;15.05;;;2.50;99.90;;;;;;5067518;28;20420;-68
2024/01/13 05:16:14;;;;;;;19.30;14.93;;;2.50;99.90;;;;;;5065399;28;20431;-66
2024/01/13 05:18:41;;;;;;;20.23;14.70;;;2.50;99.90;;;;;;5067762;28;20606;-66
2024/01/13 05:21:08;;;;;;;19.70;15.48;;;2.50;99.90;;;;;;5066725;28;20957;-65
2024/01/13 05:23:34;;;;;;;19.58;15.05;;;2.50;99.90;;;;;;5067922;28;20412;-68
2024/01/13 05:26:01;;;;;;;19.92;15.60;;;2.50;99.90;;;;;;5066755;28;20431;-66
2024/01/13 05:28:28;;;;;;;20.00;15.50;;;2.50;99.90;;;;;;5072962;28;20624;-66
2024/01/13 05:30:56;;;;;;;18.25;15.05;;;2.50;99.90;;;;;;5067803;28;20709;-67
2024/01/13 05:33:23;;;;;;;20.70;17.27;;;2.50;99.90;;;;;;5066086;28;20450;-67
2024/01/13 05:35:50;;;;;;;21.75;16.73;;;2.50;99.90;;;;;;5066414;28;20450;-67
2024/01/13 05:38:17;;;;;;;21.33;16.63;;;2.50;99.90;;;;;;5066621;28;20788;-67
2024/01/13 05:40:44;;;;;;;20.95;16.50;;;2.50;99.90;;;;;;5065304;28;20505;-68
2024/01/13 05:43:11;;;;;;;20.15;17.25;;;2.50;99.90;;;;;;5066137;28;20428;-67
2024/01/13 05:45:37;;;;;;;20.98;16.50;;;2.50;99.90;;;;;;5067333;28;20790;-69
2024/01/13 05:48:06;;;;;;;24.13;17.13;;;2.50;99.90;;;;;;5066133;28;20803;-67
2024/01/13 05:50:33;;;;;;;20.98;17.45;;;2.50;99.90;;;;;;5073202;28;20411;-69
2024/01/13 05:52:59;;;;;;;22.60;17.55;;;2.50;99.90;;;;;;5067311;28;20419;-69
2024/01/13 05:55:26;;;;;;;22.00;17.70;;;2.60;99.90;;;;;;5068232;28;20795;-68
2024/01/13 05:57:53;;;;;;;20.80;17.52;;;2.50;99.90;;;;;;5066828;28;20407;-68
2024/01/13 06:00:20;;;;;;;22.92;18.15;;;2.50;99.90;;;;;;5066243;28;20422;-68
2024/01/13 06:02:46;;;;;;;23.63;17.20;;;2.50;99.90;;;;;;5067020;28;20422;-69
2024/01/13 06:05:14;;;;;;;20.88;17.75;;;2.50;99.90;;;;;;5065837;28;20906;-67
2024/01/13 06:07:43;;;;;;;20.63;16.83;;;2.50;99.90;;;;;;5067940;28;20419;-66
2024/01/13 06:10:10;;;;;;;22.75;17.13;;;2.50;99.90;;;;;;5063806;28;20435;-69
2024/01/13 06:12:37;;;;;;;19.25;16.65;;;2.50;99.90;;;;;;5066930;28;20415;-67
2024/01/13 06:15:05;;;;;;;21.33;16.30;;;2.50;99.90;;;;;;5066665;28;20458;-67
2024/01/13 06:17:31;;;;;;;22.50;16.20;;;2.40;99.90;;;;;;5066714;28;20430;-66
2024/01/13 06:19:58;;;;;;;20.25;16.30;;;2.40;99.90;;;;;;5065373;28;20411;-67
2024/01/13 06:22:26;;;;;;;19.73;15.80;;;2.50;99.90;;;;;;5067419;28;20417;-66
2024/01/13 06:24:54;;;;;;;21.83;16.67;;;2.40;99.90;;;;;;5064751;28;20526;-66
2024/01/13 06:27:20;;;;;;;21.70;16.83;;;2.50;99.90;;;;;;5064695;28;20439;-66
2024/01/13 06:29:47;;;;;;;20.00;16.25;;;2.50;99.90;;;;;;5065842;28;20411;-67
2024/01/13 06:32:14;;;;;;;18.98;16.05;;;2.50;99.90;;;;;;5067042;28;20415;-67
2024/01/13 06:34:40;;;;;;;18.83;15.90;;;2.50;99.90;;;;;;5066222;28;20779;-66
2024/01/13 06:37:07;;;;;;;18.80;15.90;;;2.40;99.90;;;;;;5066986;28;20412;-67
2024/01/13 06:39:35;;;;;;;19.70;15.07;;;2.50;99.90;;;;;;5065315;28;20435;-67
2024/01/13 06:42:06;;;;;;;18.00;15.15;;;2.40;99.90;;;;;;5070416;28;20481;-67
2024/01/13 06:44:32;;;;;;;18.63;14.90;;;2.50;99.90;;;;;;5070440;28;20411;-67
2024/01/13 06:46:59;;;;;;;19.60;15.30;;;2.50;99.90;;;;;;5070850;28;20416;-67
2024/01/13 06:49:26;;;;;;;17.35;14.85;;;2.50;99.90;;;;;;5069912;28;20407;-66
2024/01/13 06:51:52;;;;;;;17.42;14.52;;;2.50;99.90;;;;;;5070356;28;20418;-67
2024/01/13 06:54:19;;;;;;;18.20;15.13;;;2.50;99.90;;;;;;5068734;28;20430;-67
2024/01/13 06:56:47;;;;;;;17.90;16.00;;;2.60;99.90;;;;;;5075481;28;20439;-67
2024/01/13 06:59:14;;;;;;;17.85;14.80;;;2.60;99.90;;;;;;5069130;28;20418;-67
2024/01/13 07:01:41;;;;;;;17.70;14.68;;;2.60;99.90;;;;;;5070398;28;20418;-67
2024/01/13 07:04:07;;;;;;;18.35;14.52;;;2.60;99.90;;;;;;5070293;28;20419;-67
2024/01/13 07:06:36;;;;;;;18.77;15.82;;;2.60;99.90;;;;;;5070031;28;20422;-67
2024/01/13 07:09:03;;;;;;;16.23;13.88;;;2.60;99.90;;;;;;5066568;28;20871;-68
2024/01/13 07:11:30;;;;;;;17.77;14.90;;;2.60;99.90;;;;;;5070205;28;20940;-66
2024/01/13 07:13:58;;;;;;;17.52;14.80;;;2.60;99.90;;;;;;5069276;28;20431;-67
2024/01/13 07:16:24;;;;;;;17.50;15.70;;;2.60;99.90;;;;;;5070362;28;20434;-67
2024/01/13 07:18:51;;;;;;;17.60;15.13;;;2.60;99.90;;;;;;5069342;28;20490;-67
2024/01/13 07:21:18;;;;;;;17.63;15.73;;;2.60;99.90;;;;;;5069475;28;20407;-66
2024/01/13 07:23:45;;;;;;;18.65;16.58;;;2.60;99.90;;;;;;5069320;28;20814;-66
2024/01/13 07:26:11;;;;;;;19.35;16.40;;;2.60;99.90;;;;;;5072163;28;20408;-66
2024/01/13 07:28:38;;;;;;;20.20;16.25;;;2.50;99.90;;;;;;5067914;28;21052;-67
2024/01/13 07:31:07;;;;;;;19.45;16.15;;;2.60;99.90;;;;;;5070189;28;20416;-67
2024/01/13 07:33:33;;;;;;;19.08;16.30;;;2.50;99.90;;;;;;5069270;28;20830;-66
2024/01/13 07:36:00;;;;;;;18.20;16.30;;;2.60;99.90;;;;;;5068720;28;20438;-66
2024/01/13 07:38:27;;;;;;;18.35;16.45;;;2.60;99.90;;;;;;5068203;28;20775;-66
2024/01/13 07:40:54;;;;;;;19.00;15.90;;;2.60;99.90;;;;;;5069317;28;20420;-65
2024/01/13 07:43:20;;;;;;;17.75;15.85;;;2.60;99.90;;;;;;5067702;28;20438;-67
2024/01/13 07:45:47;;;;;;;18.60;16.60;;;2.60;99.90;;;;;;5069528;28;20877;-66
2024/01/13 07:48:15;;;;;;;18.40;16.35;;;2.60;99.90;;;;;;5069285;28;20411;-66
2024/01/13 07:50:42;;;;;;;19.33;17.25;;;2.50;99.90;;;;;;5067419;28;20427;-65
2024/01/13 07:53:08;;;;;;;18.52;16.80;;;2.50;99.90;;;;;;5068457;28;20431;-67
2024/01/13 07:55:35;;;;;;;19.90;17.90;;;2.60;99.90;;;;;;5072741;28;20427;-67
2024/01/13 07:58:02;;;;;;;19.10;17.10;;;2.60;99.90;;;;;;5067855;28;20415;-68
2024/01/13 08:00:29;;;;;;;19.92;17.92;;;2.60;99.90;;;;;;5069286;28;20411;-68
2024/01/13 08:02:55;;;;;;;19.38;17.38;;;2.60;99.90;;;;;;5068864;28;20424;-69
2024/01/13 08:05:23;;;;;;;19.73;17.70;;;2.60;99.90;;;;;;5067386;28;20442;-68
2024/01/13 08:07:50;;;;;;;20.00;17.90;;;2.60;99.90;;;;;;5068243;28;20430;-68
2024/01/13 08:10:17;;;;;;;19.63;17.52;;;2.60;99.90;;;;;;5068082;28;20411;-68
2024/01/13 08:12:43;;;;;;;20.30;17.80;;;2.60;99.90;;;;;;5068609;28;20898;-73
2024/01/13 08:15:10;;;;;;;19.83;17.75;;;2.60;99.90;;;;;;5068759;28;20422;-73
2024/01/13 08:17:37;;;;;;;20.70;18.70;;;2.60;99.90;;;;;;5066290;28;20438;-74
2024/01/13 08:20:05;;;;;;;21.85;19.55;;;2.60;99.90;;;;;;5066679;28;20416;-71
2024/01/13 08:22:33;;;;;;;20.70;18.50;;;2.60;99.90;;;;;;5067793;28;20925;-72
2024/01/13 08:24:59;;;;;;;21.08;18.88;;;2.60;99.90;;;;;;5067650;28;20446;-73
2024/01/13 08:27:27;;;;;;;19.30;17.30;;;2.60;99.90;;;;;;5066995;28;20423;-70
2024/01/13 08:29:53;;;;;;;20.83;18.63;;;2.60;99.90;;;;;;5067590;28;21033;-70
2024/01/13 08:32:20;;;;;;;20.80;18.77;;;2.60;99.90;;;;;;5068833;28;20760;-69
2024/01/13 08:34:47;;;;;;;19.98;17.90;;;2.60;99.90;;;;;;5068145;28;20443;-70
2024/01/13 08:37:14;;;;;;;19.95;17.95;;;2.60;99.90;;;;;;5068491;28;20435;-68
2024/01/13 08:39:42;;;;;;;20.15;18.05;;;2.60;99.90;;;;;;5064721;28;20434;-68
2024/01/13 08:42:09;;;;;;;21.30;19.10;;;2.60;99.90;;;;;;5068220;28;20411;-70
2024/01/13 08:44:36;;;;;;;20.30;18.30;;;2.60;99.90;;;;;;5069013;28;20408;-69
2024/01/13 08:47:02;;;;;;;20.48;18.48;;;2.70;99.90;;;;;;5059481;28;20425;-70
2024/01/13 08:49:29;;;;;;;20.88;18.67;;;2.70;99.90;;;;;;5065444;28;20403;-73
2024/01/13 08:51:56;;;;;;;19.98;17.98;;;2.70;99.90;;;;;;5067793;28;20891;-71
2024/01/13 08:54:23;;;;;;;19.90;17.90;;;2.70;99.90;;;;;;5066109;28;20439;-72
2024/01/13 08:56:51;;;;;;;19.40;17.30;;;2.70;99.90;;;;;;5066597;28;20989;-71
2024/01/13 08:59:18;;;;;;;19.77;17.73;;;2.70;99.90;;;;;;5066125;28;20451;-71
2024/01/13 09:01:45;;;;;;;19.00;17.10;;;2.70;99.90;;;;;;5067250;28;20438;-71
2024/01/13 09:04:12;;;;;;;18.58;16.67;;;2.80;99.90;;;;;;5067667;28;20778;-71
2024/01/13 09:06:40;;;;;;;16.85;15.25;;;2.80;99.90;;;;;;5066384;28;20416;-71
2024/01/13 09:09:06;;;;;;;16.60;15.00;;;2.80;99.90;;;;;;5068088;23;20948;-63
2024/01/13 09:11:33;;;;;;;16.88;15.27;;;2.90;99.90;;;;;;5013006;28;20435;-63
2024/01/13 09:14:01;;;;;;;17.00;15.25;;;2.90;99.90;;;;;;5020737;28;20515;-63
2024/01/13 09:16:28;;;;;;;16.52;14.88;;;2.90;99.90;;;;;;5023865;28;20454;-64
2024/01/13 09:18:55;;;;;;;15.73;14.15;;;2.90;99.90;;;;;;5024687;28;20438;-63
2024/01/13 09:21:22;;;;;;;16.77;15.10;;;2.90;99.90;;;;;;5019035;28;20502;-65
2024/01/13 09:23:50;;;;;;;17.40;15.70;;;2.90;99.90;;;;;;5020306;28;20452;-65
2024/01/13 09:26:17;;;;;;;16.58;14.88;;;3.00;99.90;;;;;;5017026;28;20428;-66
2024/01/13 09:28:46;;;;;;;14.75;13.25;;;3.00;99.90;;;;;;5014918;28;20509;-65
2024/01/13 09:31:14;;;;;;;14.40;13.02;;;3.00;99.90;;;;;;5016262;28;20445;-66
2024/01/13 09:33:40;;;;;;;14.05;12.75;;;3.00;99.90;;;;;;5019285;28;20427;-66
2024/01/13 09:36:08;;;;;;;15.70;14.10;;;3.00;99.90;;;;;;5018395;28;20435;-65
2024/01/13 09:38:34;;;;;;;14.77;13.38;;;3.00;99.90;;;;;;5015708;28;20440;-65
2024/01/13 09:41:01;;;;;;;14.30;12.90;;;3.00;99.90;;;;;;5022373;28;20422;-65
2024/01/13 09:43:38;;;;;;;13.55;12.20;;;3.10;99.90;;;;;;5016204;28;20504;-65
2024/01/13 09:46:05;;;;;;;14.00;12.80;;;3.00;99.90;;;;;;5018805;28;20447;-65
2024/01/13 09:48:33;;;;;;;13.93;12.63;;;3.10;99.90;;;;;;5017620;28;20410;-65
2024/01/13 09:51:01;;;;;;;14.15;12.85;;;3.00;99.90;;;;;;5012578;28;20463;-65
2024/01/13 09:53:29;;;;;;;13.73;12.32;;;3.00;99.90;;;;;;5017430;28;20438;-65
2024/01/13 09:55:58;;;;;;;13.23;12.00;;;3.00;99.90;;;;;;5020001;28;20512;-65
2024/01/13 09:58:26;;;;;;;13.90;12.50;;;3.10;99.90;;;;;;5017273;28;20933;-65
2024/01/13 10:00:54;;;;;;;13.47;12.13;;;3.00;99.90;;;;;;5012415;28;20447;-65
2024/01/13 10:03:21;;;;;;;14.20;12.70;;;3.00;99.90;;;;;;5024121;28;20418;-65
2024/01/13 10:05:52;;;;;;;13.98;12.65;;;3.10;99.90;;;;;;5016069;28;20419;-65
2024/01/13 10:08:24;;;;;;;14.07;12.70;;;3.10;99.90;;;;;;5014510;28;20837;-64
2024/01/13 10:10:51;;;;;;;12.77;11.48;;;3.10;99.90;;;;;;5017060;28;20425;-62
2024/01/13 10:13:19;;;;;;;12.27;11.07;;;3.20;99.90;;;;;;5015637;28;20699;-65
2024/01/13 10:15:46;;;;;;;12.95;11.32;;;3.20;99.90;;;;;;5018561;28;20422;-65
2024/01/13 10:18:13;;;;;;;12.63;11.18;;;3.20;99.90;;;;;;5015934;28;20436;-64
2024/01/13 10:20:41;;;;;;;13.32;11.93;;;3.20;99.90;;;;;;5016298;28;20728;-63
2024/01/13 10:23:09;;;;;;;13.43;12.13;;;3.20;99.90;;;;;;5013583;28;20436;-62
2024/01/13 10:25:35;;;;;;;12.45;11.23;;;3.20;99.90;;;;;;5014809;28;20427;-62
2024/01/13 10:28:03;;;;;;;12.52;11.32;;;3.20;99.90;;;;;;5016732;28;20411;-63
2024/01/13 10:30:30;;;;;;;12.27;11.07;;;3.20;99.90;;;;;;5021804;28;20448;-62
2024/01/13 10:32:58;;;;;;;12.00;10.80;;;3.20;99.90;;;;;;5022914;28;20512;-62
2024/01/13 10:35:27;;;;;;;11.50;10.40;;;3.20;99.90;;;;;;5015199;28;20929;-64
2024/01/13 10:37:56;;;;;;;10.20;9.20;;;3.30;99.90;;;;;;5015968;28;20508;-65
2024/01/13 10:40:24;;;;;;;11.20;10.10;;;3.30;99.90;;;;;;5019050;28;20750;-65
2024/01/13 10:42:55;;;;;;;10.57;9.57;;;3.30;99.90;;;;;;5008214;28;20922;-65
2024/01/13 10:45:23;;;;;;;11.00;10.00;;;3.30;99.90;;;;;;5016363;28;20513;-65
2024/01/13 10:47:52;;;;;;;10.55;9.55;;;3.40;99.90;;;;;;5020399;28;20427;-65
2024/01/13 10:50:19;;;;;;;9.98;9.02;;;3.40;99.90;;;;;;5018589;28;20426;-64
2024/01/13 10:52:58;;;;;;;11.57;10.38;;;3.40;99.90;;;;;;5018933;28;20514;-63
2024/01/13 10:55:27;;;;;;;10.63;9.30;;;3.40;99.90;;;;;;5014483;28;20413;-64
2024/01/13 10:57:56;;;;;;;11.57;10.38;;;3.40;99.90;;;;;;5015124;28;20435;-64
2024/01/13 11:00:23;;;;;;;10.23;9.32;;;3.40;99.90;;;;;;5014252;28;20426;-64
2024/01/13 11:02:52;;;;;;;9.93;9.02;;;3.30;99.90;;;;;;5018526;28;20446;-64
2024/01/13 11:05:22;;;;;;;10.18;9.27;;;3.30;99.90;;;;;;5018053;28;21181;-64
2024/01/13 11:07:49;;;;;;;10.77;9.73;;;3.20;99.90;;;;;;5014796;28;20709;-64
2024/01/13 11:10:20;;;;;;;11.07;9.98;;;3.30;99.90;;;;;;5015491;28;20435;-64
2024/01/13 11:12:55;;;;;;;10.07;9.07;;;3.30;99.90;;;;;;5016868;28;20756;-64
2024/01/13 11:15:29;;;;;;;10.80;9.80;;;3.20;99.90;;;;;;5017375;28;20450;-64
2024/01/13 11:17:55;;;;;;;10.65;9.65;;;3.20;99.90;;;;;;5021779;28;20422;-64
2024/01/13 11:20:22;;;;;;;10.80;9.80;;;3.20;99.90;;;;;;5015031;28;20507;-64
2024/01/13 11:22:58;;;;;;;11.18;10.07;;;3.20;99.90;;;;;;5018428;28;20455;-64
2024/01/13 11:25:25;;;;;;;11.00;10.00;;;3.20;99.90;;;;;;5019340;28;20410;-64
2024/01/13 11:28:01;;;;;;;12.18;10.88;;;3.10;99.90;;;;;;5023135;28;20500;-64
2024/01/13 11:30:38;;;;;;;11.15;10.05;;;3.10;99.90;;;;;;5023497;28;20431;-64
2024/01/13 11:33:06;;;;;;;11.00;9.90;;;3.10;99.90;;;;;;5021506;28;20451;-65
2024/01/13 11:35:33;;;;;;;10.73;9.63;;;3.10;99.90;;;;;;5023231;28;20442;-64
2024/01/13 11:38:02;;;;;;;10.30;9.30;;;3.10;99.90;;;;;;5023942;28;20804;-63
2024/01/13 11:40:29;;;;;;;10.30;9.30;;;3.10;99.90;;;;;;5025617;28;21063;-64
2024/01/13 11:43:08;;;;;;;11.00;9.90;;;3.10;99.90;;;;;;5025854;28;20421;-63
2024/01/13 11:45:36;;;;;;;10.60;9.50;;;3.00;99.90;;;;;;5024425;28;20421;-63
2024/01/13 11:48:36;;;;;;;11.75;10.65;;;3.00;99.90;;;;;;5024723;28;20529;-63
2024/01/13 11:51:08;;;;;;;11.40;10.00;;;2.90;99.90;;;;;;5021421;28;20419;-63
2024/01/13 11:53:35;;;;;;;11.10;10.00;;;2.90;99.90;;;;;;5025405;28;20431;-63
2024/01/13 11:56:03;;;;;;;10.43;9.43;;;2.90;99.90;;;;;;5027261;28;20414;-63
2024/01/13 11:58:32;;;;;;;12.48;11.00;;;2.80;99.90;;;;;;5021373;28;20492;-64
2024/01/13 12:01:00;;;;;;;11.60;10.40;;;2.80;99.90;;;;;;5025159;28;20620;-63
2024/01/13 12:03:27;;;;;;;11.68;10.50;;;2.80;99.90;;;;;;5024920;28;20411;-64
2024/01/13 12:05:54;;;;;;;12.30;11.10;;;2.80;99.90;;;;;;5024578;28;20801;-63
2024/01/13 12:08:20;;;;;;;12.70;11.40;;;2.80;99.90;;;;;;5024852;28;20415;-63
2024/01/13 12:10:49;;;;;;;12.35;11.15;;;2.80;99.90;;;;;;5027583;28;20873;-63
2024/01/13 12:13:16;;;;;;;12.15;10.85;;;2.70;99.90;;;;;;5026097;28;20484;-63
2024/01/13 12:15:46;;;;;;;12.57;11.38;;;2.70;99.90;;;;;;5026096;28;20514;-64
2024/01/13 12:18:20;;;;;;;12.55;11.35;;;2.70;99.90;;;;;;5025429;28;20924;-64
2024/01/13 12:20:48;;;;;;;13.15;11.85;;;2.70;99.90;;;;;;5023685;28;20525;-63
2024/01/13 12:23:15;;;;;;;13.48;12.07;;;2.60;99.90;;;;;;5026313;28;20419;-63
2024/01/13 12:25:41;;;;;;;13.53;12.13;;;2.60;99.90;;;;;;5024517;28;20430;-64
2024/01/13 12:28:08;;;;;;;14.27;12.77;;;2.60;99.90;;;;;;5025103;28;20403;-63
2024/01/13 12:30:36;;;;;;;14.55;13.05;;;2.60;99.90;;;;;;5025153;28;20477;-63
2024/01/13 12:33:05;;;;;;;13.90;12.50;;;2.60;99.90;;;;;;5021748;28;20473;-63
2024/01/13 12:35:32;;;;;;;14.15;12.68;;;2.60;99.90;;;;;;5024975;28;20429;-63
2024/01/13 12:38:00;;;;;;;14.88;13.27;;;2.60;99.90;;;;;;5021554;28;20435;-63
2024/01/13 12:40:28;;;;;;;14.75;13.25;;;2.60;99.90;;;;;;5023407;28;20419;-63